Terminal Aerodrome Forecast
Issued by NWS

Home | Current Version | Previous Version | Text Only | Print | Product List | Glossary On
Versions: 1 2 3 4 5 6 7 8 9 10 11 12 13 14 15 16 17 18
000
FTUS42 KTAE 282300
TAFECP
TAF
KECP 282320Z 2900/2924 26010G17KT P6SM SCT030
      TEMPO 2902/2905 22015G22KT 3SM TSRA BKN030CB
     FM290500 35009KT P6SM SCT030 BKN100
     FM291600 29013KT P6SM FEW120
     FM292100 30007KT P6SM SKC=

USA.gov is the U.S. government's official web portal to all federal, state and local government web resources and services.